createdAt,value
2022-08-16T00:02:32.986Z,99688.03
2022-08-16T00:05:01.217Z,99692.19
2022-08-16T00:07:29.650Z,99685.66
2022-08-16T00:09:58.863Z,99687.78
2022-08-16T00:12:27.630Z,99685.84
2022-08-16T00:14:57.943Z,99687.34
2022-08-16T00:17:28.148Z,99689.81
2022-08-16T00:19:56.907Z,99687.28
2022-08-16T00:22:25.726Z,99695.31
2022-08-16T00:24:55.851Z,99697.06
2022-08-16T00:27:24.285Z,99688.16
2022-08-16T00:30:08.495Z,99699.63
2022-08-16T00:32:39.794Z,99699.28
2022-08-16T00:35:15.280Z,99696.97
2022-08-16T00:37:56.183Z,99697.84
2022-08-16T00:40:34.755Z,99699.47
2022-08-16T00:43:11.798Z,99706.19
2022-08-16T00:46:00.120Z,99706.72
2022-08-16T00:48:45.498Z,99712.00
2022-08-16T00:51:16.175Z,99715.91
2022-08-16T00:53:46.514Z,99711.22
2022-08-16T00:56:58.379Z,99717.75
2022-08-16T00:59:06.994Z,99717.31
2022-08-16T01:01:35.900Z,99717.91
2022-08-16T01:04:29.195Z,99712.47
2022-08-16T01:07:01.820Z,99716.41
2022-08-16T01:09:33.189Z,99701.06
2022-08-16T01:12:02.915Z,99715.50
2022-08-16T01:14:36.309Z,99720.97
2022-08-16T01:17:08.471Z,99710.00
2022-08-16T01:19:42.796Z,99707.53
2022-08-16T01:22:47.777Z,99713.66
2022-08-16T01:25:11.047Z,99713.34
2022-08-16T01:27:45.043Z,99709.63
2022-08-16T01:30:19.987Z,99698.34
2022-08-16T01:33:01.304Z,99705.78
2022-08-16T01:35:36.279Z,99697.06
2022-08-16T01:38:19.605Z,99695.97
2022-08-16T01:40:50.089Z,99700.28
2022-08-16T01:43:18.346Z,99695.72
2022-08-16T01:45:47.485Z,99701.06
2022-08-16T01:48:27.880Z,99701.63
2022-08-16T01:51:16.559Z,99698.59
2022-08-16T01:53:44.007Z,99697.81
2022-08-16T01:56:24.890Z,99713.41
2022-08-16T01:58:53.808Z,99721.75
2022-08-16T02:01:21.884Z,99710.94
2022-08-16T02:03:50.733Z,99716.56
2022-08-16T02:06:33.738Z,99719.78
2022-08-16T02:09:05.154Z,99721.69
2022-08-16T02:11:47.952Z,99718.16
2022-08-16T02:14:18.262Z,99716.84
2022-08-16T02:16:49.184Z,99717.09
2022-08-16T02:19:18.398Z,99708.72
2022-08-16T02:22:08.554Z,99704.97
2022-08-16T02:24:41.260Z,99711.94
2022-08-16T02:27:12.271Z,99701.13
2022-08-16T02:29:41.263Z,99710.25
2022-08-16T02:32:49.361Z,99714.47
2022-08-16T02:34:59.234Z,99715.50
2022-08-16T02:37:51.732Z,99718.50
2022-08-16T02:40:17.748Z,99708.13
2022-08-16T02:42:49.597Z,99723.28
2022-08-16T02:45:19.759Z,99712.50
2022-08-16T02:48:00.964Z,99719.13
2022-08-16T02:50:55.463Z,99713.66
2022-08-16T02:53:23.823Z,99705.69
2022-08-16T02:55:51.738Z,99708.22
2022-08-16T02:58:24.964Z,99710.66
2022-08-16T03:00:56.011Z,99706.84
2022-08-16T03:03:24.836Z,99703.22
2022-08-16T03:05:53.105Z,99702.47
2022-08-16T03:08:51.071Z,99702.19
2022-08-16T03:11:17.786Z,99703.91
2022-08-16T03:13:56.621Z,99693.59
2022-08-16T03:16:38.110Z,99716.34
2022-08-16T03:19:08.278Z,99715.19
2022-08-16T03:21:38.086Z,99723.78
2022-08-16T03:24:28.148Z,99717.53
2022-08-16T03:26:58.210Z,99716.25
2022-08-16T03:29:30.404Z,99726.66
2022-08-16T03:31:59.426Z,99722.31
2022-08-16T03:34:27.518Z,99728.25
2022-08-16T03:36:56.122Z,99726.81
2022-08-16T03:39:24.371Z,99732.91
2022-08-16T03:42:00.061Z,99732.09
2022-08-16T03:44:44.831Z,99724.09
2022-08-16T03:47:19.151Z,99728.47
2022-08-16T03:49:51.761Z,99728.25
2022-08-16T03:52:20.559Z,99732.97
2022-08-16T03:54:53.654Z,99723.28
2022-08-16T03:57:32.061Z,99722.41
2022-08-16T04:00:36.007Z,99715.75
2022-08-16T04:03:07.316Z,99716.53
2022-08-16T04:05:36.904Z,99727.00
2022-08-16T04:08:23.291Z,99723.13
2022-08-16T04:10:54.891Z,99720.13
2022-08-16T04:13:59.047Z,99726.44
2022-08-16T04:16:26.509Z,99714.63
2022-08-16T04:19:02.299Z,99716.31
2022-08-16T04:21:32.205Z,99730.28
2022-08-16T04:24:00.476Z,99730.00
2022-08-16T04:26:31.122Z,99728.56
2022-08-16T04:29:15.183Z,99738.75
2022-08-16T04:31:55.837Z,99732.16
2022-08-16T04:34:27.909Z,99734.78
2022-08-16T04:36:58.059Z,99735.94
2022-08-16T04:39:44.836Z,99714.97
2022-08-16T04:42:14.569Z,99733.47
2022-08-16T04:44:53.529Z,99740.06
2022-08-16T04:47:31.445Z,99737.59
2022-08-16T04:50:01.605Z,99727.81
2022-08-16T04:52:34.608Z,99732.03
2022-08-16T04:55:08.174Z,99731.94
2022-08-16T04:57:37.269Z,99734.78
2022-08-16T05:00:30.932Z,99743.78
2022-08-16T05:02:58.908Z,99742.97
2022-08-16T05:05:32.672Z,99740.22
2022-08-16T05:08:28.357Z,99744.28
2022-08-16T05:10:50.216Z,99743.75
2022-08-16T05:13:19.100Z,99758.53
2022-08-16T05:15:47.793Z,99748.31
2022-08-16T05:18:26.872Z,99752.56
2022-08-16T05:21:01.765Z,99749.06
2022-08-16T05:23:37.962Z,99760.22
2022-08-16T05:26:06.356Z,99758.06
2022-08-16T05:28:47.614Z,99753.41
2022-08-16T05:31:23.982Z,99751.63
2022-08-16T05:34:00.266Z,99761.13
2022-08-16T05:36:33.944Z,99757.03
2022-08-16T05:39:06.106Z,99762.31
2022-08-16T05:41:44.691Z,99758.56
2022-08-16T05:44:23.122Z,99767.94
2022-08-16T05:46:55.824Z,99754.50
2022-08-16T05:49:38.499Z,99775.78
2022-08-16T05:52:11.608Z,99778.84
2022-08-16T05:54:46.599Z,99781.03
2022-08-16T05:57:17.122Z,99788.22
2022-08-16T05:59:45.448Z,99784.25
2022-08-16T06:02:14.343Z,99787.53
2022-08-16T06:04:45.137Z,99787.19
2022-08-16T06:07:25.174Z,99785.38
2022-08-16T06:09:58.121Z,99781.84
2022-08-16T06:12:28.979Z,99788.22
2022-08-16T06:14:59.701Z,99790.13
2022-08-16T06:17:41.217Z,99771.50
2022-08-16T06:20:18.466Z,99800.03
2022-08-16T06:22:57.460Z,99800.50
2022-08-16T06:25:36.081Z,99800.44
2022-08-16T06:28:10.107Z,99793.00
2022-08-16T06:30:43.271Z,99795.75
2022-08-16T06:33:12.764Z,99795.28
2022-08-16T06:35:42.039Z,99786.66
2022-08-16T06:38:32.563Z,99787.59
2022-08-16T06:40:58.032Z,99790.28
2022-08-16T06:43:27.407Z,99785.94
2022-08-16T06:45:56.567Z,99795.56
2022-08-16T06:48:33.032Z,99798.38
2022-08-16T06:51:04.295Z,99786.50
2022-08-16T06:53:33.681Z,99788.81
2022-08-16T06:56:06.613Z,99792.00
2022-08-16T06:58:43.013Z,99792.69
2022-08-16T07:01:14.903Z,99786.22
2022-08-16T07:03:55.172Z,99791.22
2022-08-16T07:06:27.315Z,99804.94
2022-08-16T07:08:56.067Z,99794.69
2022-08-16T07:11:45.661Z,99798.69
2022-08-16T07:14:25.641Z,99797.25
2022-08-16T07:16:58.292Z,99796.94
2022-08-16T07:19:33.724Z,99794.47
2022-08-16T07:22:38.627Z,99807.41
2022-08-16T07:25:07.416Z,99799.94
2022-08-16T07:27:37.422Z,99800.31
2022-08-16T07:30:39.320Z,99799.19
2022-08-16T07:32:56.491Z,99801.03
2022-08-16T07:35:24.805Z,99802.38
2022-08-16T07:37:54.256Z,99799.28
2022-08-16T07:40:36.973Z,99794.75
2022-08-16T07:43:10.072Z,99792.13
2022-08-16T07:45:39.093Z,99791.72
2022-08-16T07:48:12.605Z,99781.84
2022-08-16T07:50:57.263Z,99796.41
2022-08-16T07:53:30.122Z,99798.47
2022-08-16T07:56:00.104Z,99810.44
2022-08-16T07:58:33.661Z,99802.00
2022-08-16T08:01:05.571Z,99799.22
2022-08-16T08:03:41.651Z,99801.31
2022-08-16T08:06:11.916Z,99803.38
2022-08-16T08:08:50.404Z,99792.09
2022-08-16T08:11:21.277Z,99803.44
2022-08-16T08:13:49.635Z,99807.69
2022-08-16T08:16:19.880Z,99803.91
2022-08-16T08:18:50.097Z,99807.06
2022-08-16T08:21:19.576Z,99815.59
2022-08-16T08:23:57.585Z,99813.16
2022-08-16T08:26:26.252Z,99811.34
2022-08-16T08:29:00.888Z,99811.09
2022-08-16T08:31:29.879Z,99808.69
2022-08-16T08:33:59.930Z,99814.59
2022-08-16T08:36:33.439Z,99807.00
2022-08-16T08:39:04.089Z,99809.63
2022-08-16T08:41:42.238Z,99806.28
2022-08-16T08:44:28.851Z,99807.06
2022-08-16T08:47:01.357Z,99804.22
2022-08-16T08:49:50.340Z,99811.63
2022-08-16T08:52:33.629Z,99812.94
2022-08-16T08:55:10.501Z,99808.59
2022-08-16T08:57:40.773Z,99797.78
2022-08-16T09:00:13.585Z,99813.75
2022-08-16T09:02:44.604Z,99804.31
2022-08-16T09:05:15.918Z,99807.88
2022-08-16T09:08:01.793Z,99809.50
2022-08-16T09:10:34.813Z,99808.53
2022-08-16T09:13:08.799Z,99819.81
2022-08-16T09:15:38.756Z,99824.56
2022-08-16T09:18:26.459Z,99819.31
2022-08-16T09:20:59.881Z,99839.16
2022-08-16T09:23:31.092Z,99823.03
2022-08-16T09:26:43.084Z,99815.91
2022-08-16T09:29:14.359Z,99822.28
2022-08-16T09:31:43.805Z,99811.31
2022-08-16T09:34:17.231Z,99822.91
2022-08-16T09:36:47.025Z,99825.88
2022-08-16T09:39:16.250Z,99821.59
2022-08-16T09:41:53.247Z,99830.03
2022-08-16T09:45:09.441Z,99816.47
2022-08-16T09:47:11.656Z,99812.31
2022-08-16T09:49:40.988Z,99818.19
2022-08-16T09:52:10.002Z,99813.59
2022-08-16T09:54:38.938Z,99818.66
2022-08-16T09:57:13.873Z,99812.16
2022-08-16T09:59:43.148Z,99811.81
2022-08-16T10:02:26.117Z,99806.72
2022-08-16T10:04:57.061Z,99809.16
2022-08-16T10:07:26.133Z,99807.34
2022-08-16T10:10:12.009Z,99807.63
2022-08-16T10:12:58.597Z,99811.13
2022-08-16T10:15:30.273Z,99817.31
2022-08-16T10:18:01.616Z,99808.84
2022-08-16T10:20:34.539Z,99808.03
2022-08-16T10:23:06.870Z,99809.13
2022-08-16T10:27:17.214Z,99796.88
2022-08-16T10:28:29.213Z,99799.50
2022-08-16T10:30:59.430Z,99805.03
2022-08-16T10:33:29.764Z,99803.19
2022-08-16T10:36:03.830Z,99806.97
2022-08-16T10:38:32.790Z,99800.50
2022-08-16T10:41:01.474Z,99815.81
2022-08-16T10:43:31.275Z,99800.63
2022-08-16T10:46:01.145Z,99813.75
2022-08-16T10:48:29.984Z,99813.63
2022-08-16T10:51:00.114Z,99805.34
2022-08-16T10:53:32.997Z,99800.16
2022-08-16T10:56:02.518Z,99800.06
2022-08-16T10:58:33.936Z,99797.34
2022-08-16T11:01:25.077Z,99796.94
2022-08-16T11:03:53.976Z,99802.41
2022-08-16T11:06:26.998Z,99796.41
2022-08-16T11:14:37.287Z,99804.22
2022-08-16T11:17:09.203Z,99796.44
2022-08-16T11:22:46.932Z,99803.53
2022-08-16T11:28:08.639Z,99813.19
2022-08-16T11:30:38.983Z,99809.50
2022-08-16T11:33:08.858Z,99801.09
2022-08-16T11:35:44.181Z,99808.09
2022-08-16T11:38:46.636Z,99809.84
2022-08-16T11:41:03.655Z,99801.81
2022-08-16T11:43:33.773Z,99797.47
2022-08-16T11:46:34.197Z,99805.50
2022-08-16T11:48:54.788Z,99803.22
2022-08-16T11:51:22.619Z,99801.69
2022-08-16T11:53:50.492Z,99804.59
2022-08-16T11:56:19.971Z,99799.03
2022-08-16T11:59:08.314Z,99802.63
2022-08-16T12:01:55.156Z,99803.00
2022-08-16T12:04:23.820Z,99794.72
2022-08-16T12:06:54.616Z,99799.13
2022-08-16T12:09:23.995Z,99802.28
2022-08-16T12:11:53.530Z,99806.47
2022-08-16T12:14:23.018Z,99798.50
2022-08-16T12:16:55.158Z,99791.00
2022-08-16T12:19:35.223Z,99784.59
2022-08-16T12:22:05.875Z,99782.63
2022-08-16T12:24:52.038Z,99783.41
2022-08-16T12:27:23.933Z,99779.25
2022-08-16T12:29:52.558Z,99777.47
2022-08-16T12:32:37.734Z,99788.63
2022-08-16T12:35:13.041Z,99784.00
2022-08-16T12:37:42.041Z,99782.50
2022-08-16T12:40:23.972Z,99788.44
2022-08-16T12:42:58.894Z,99780.72
2022-08-16T12:45:30.120Z,99771.34
2022-08-16T12:48:33.666Z,99772.63
2022-08-16T12:51:03.260Z,99773.72
2022-08-16T12:53:31.967Z,99775.72
2022-08-16T12:56:00.458Z,99775.28
2022-08-16T12:58:49.133Z,99771.16
2022-08-16T13:01:16.619Z,99765.09
2022-08-16T13:03:46.676Z,99765.97
2022-08-16T13:06:20.117Z,99769.53
2022-08-16T13:08:58.351Z,99777.50
2022-08-16T13:11:33.696Z,99765.66
2022-08-16T13:14:01.585Z,99753.22
2022-08-16T13:16:33.241Z,99751.59
2022-08-16T13:19:03.429Z,99747.59
2022-08-16T13:21:35.427Z,99744.25
2022-08-16T13:24:04.164Z,99743.81
2022-08-16T13:26:33.703Z,99744.28
2022-08-16T13:29:01.573Z,99740.00
2022-08-16T13:31:29.469Z,99749.50
2022-08-16T13:33:58.607Z,99741.47
2022-08-16T13:39:17.077Z,99740.38
2022-08-16T13:41:45.258Z,99730.78
2022-08-16T13:44:22.500Z,99740.72
2022-08-16T13:47:10.458Z,99734.25
2022-08-16T13:49:38.340Z,99739.38
2022-08-16T13:52:09.079Z,99740.03
2022-08-16T13:54:36.860Z,99732.97
2022-08-16T13:57:05.703Z,99735.56
2022-08-16T13:59:33.589Z,99734.56
2022-08-16T14:02:04.042Z,99726.50
2022-08-16T14:04:36.513Z,99718.47
2022-08-16T14:07:09.605Z,99722.91
2022-08-16T14:09:38.265Z,99715.22
2022-08-16T14:12:17.510Z,99707.28
2022-08-16T14:14:46.811Z,99714.53
2022-08-16T14:17:16.573Z,99700.19
2022-08-16T14:19:46.187Z,99705.94
2022-08-16T14:22:30.542Z,99701.91
2022-08-16T14:25:00.896Z,99692.69
2022-08-16T14:27:31.550Z,99693.09
2022-08-16T14:30:01.137Z,99702.94
2022-08-16T14:32:33.965Z,99701.81
2022-08-16T14:35:04.000Z,99695.84
2022-08-16T14:37:33.447Z,99703.63
2022-08-16T14:40:01.361Z,99685.47
2022-08-16T14:42:31.556Z,99688.84
2022-08-16T14:45:00.673Z,99689.16
2022-08-16T14:47:34.158Z,99677.72
2022-08-16T14:50:03.251Z,99680.72
2022-08-16T14:52:54.601Z,99679.56
2022-08-16T14:55:23.943Z,99674.72
2022-08-16T14:57:52.713Z,99671.03
2022-08-16T15:00:33.013Z,99666.88
2022-08-16T15:03:03.465Z,99664.13
2022-08-16T15:05:32.982Z,99671.28
2022-08-16T15:08:02.362Z,99666.66
2022-08-16T15:10:32.239Z,99659.28
2022-08-16T15:13:01.517Z,99651.28
2022-08-16T15:15:31.360Z,99663.72
2022-08-16T15:18:01.765Z,99667.59
2022-08-16T15:20:33.753Z,99671.47
2022-08-16T15:23:05.774Z,99663.19
2022-08-16T15:25:36.672Z,99653.72
2022-08-16T15:28:30.507Z,99660.84
2022-08-16T15:31:00.967Z,99662.22
2022-08-16T15:33:33.450Z,99661.41
2022-08-16T15:36:02.283Z,99667.22
2022-08-16T15:39:02.609Z,99662.25
2022-08-16T15:42:01.165Z,99678.72
2022-08-16T15:44:38.874Z,99673.09
2022-08-16T15:47:18.762Z,99680.59
2022-08-16T15:49:53.143Z,99683.06
2022-08-16T15:52:29.858Z,99678.50
2022-08-16T15:55:12.955Z,99685.44
2022-08-16T15:57:44.240Z,99683.31
2022-08-16T16:00:15.652Z,99687.47
2022-08-16T16:02:44.227Z,99675.38
2022-08-16T16:05:13.933Z,99691.13
2022-08-16T16:07:55.719Z,99682.22
2022-08-16T16:10:29.528Z,99682.06
2022-08-16T16:12:59.700Z,99700.59
2022-08-16T16:15:31.070Z,99684.97
2022-08-16T16:17:59.958Z,99698.94
2022-08-16T16:20:37.327Z,99702.69
2022-08-16T16:23:11.141Z,99688.38
2022-08-16T16:25:43.781Z,99695.47
2022-08-16T16:28:46.345Z,99686.59
2022-08-16T16:31:04.711Z,99685.50
2022-08-16T16:33:33.949Z,99671.19
2022-08-16T16:36:05.718Z,99686.28
2022-08-16T16:38:36.013Z,99682.06
2022-08-16T16:41:11.341Z,99687.03
2022-08-16T16:43:42.928Z,99684.13
2022-08-16T16:46:38.946Z,99688.38
2022-08-16T16:49:03.029Z,99686.75
2022-08-16T16:51:32.665Z,99685.94
2022-08-16T16:54:12.984Z,99688.81
2022-08-16T16:56:49.581Z,99688.91
2022-08-16T16:59:18.217Z,99685.28
2022-08-16T17:01:59.659Z,99682.69
2022-08-16T17:04:37.654Z,99674.47
2022-08-16T17:07:10.482Z,99683.31
2022-08-16T17:09:40.408Z,99685.63
2022-08-16T17:12:21.700Z,99686.63
2022-08-16T17:14:53.512Z,99687.56
2022-08-16T17:17:21.656Z,99685.94
2022-08-16T17:19:49.740Z,99684.59
2022-08-16T17:22:20.205Z,99684.41
2022-08-16T17:24:50.743Z,99685.34
2022-08-16T17:27:33.287Z,99686.06
2022-08-16T17:30:03.581Z,99696.78
2022-08-16T17:32:50.491Z,99690.53
2022-08-16T17:35:25.342Z,99691.94
2022-08-16T17:38:04.722Z,99696.41
2022-08-16T17:40:51.999Z,99702.22
2022-08-16T17:43:28.988Z,99696.31
2022-08-16T17:45:57.527Z,99695.06
2022-08-16T17:48:26.141Z,99700.88
2022-08-16T17:50:54.581Z,99694.16
2022-08-16T17:53:22.959Z,99700.16
2022-08-16T17:55:51.526Z,99693.88
2022-08-16T17:58:23.107Z,99705.72
2022-08-16T18:00:55.859Z,99703.06
2022-08-16T18:04:02.334Z,99691.31
2022-08-16T18:06:18.395Z,99703.41
2022-08-16T18:08:49.127Z,99700.75
2022-08-16T18:11:25.687Z,99704.91
2022-08-16T18:13:55.049Z,99713.66
2022-08-16T18:16:24.454Z,99710.84
2022-08-16T18:18:52.268Z,99713.25
2022-08-16T18:21:37.525Z,99711.06
2022-08-16T18:24:05.804Z,99711.00
2022-08-16T18:26:33.784Z,99717.88
2022-08-16T18:29:01.612Z,99716.03
2022-08-16T18:31:31.317Z,99713.47
2022-08-16T18:33:59.367Z,99714.53
2022-08-16T18:36:27.452Z,99723.22
2022-08-16T18:38:55.746Z,99697.41
2022-08-16T18:41:25.862Z,99719.75
2022-08-16T18:44:26.538Z,99718.22
2022-08-16T18:46:50.723Z,99729.09
2022-08-16T18:49:19.729Z,99728.22
2022-08-16T18:51:47.876Z,99716.81
2022-08-16T18:54:18.606Z,99729.09
2022-08-16T18:56:56.117Z,99729.78
2022-08-16T18:59:26.911Z,99730.28
2022-08-16T19:02:00.101Z,99738.31
2022-08-16T19:04:47.608Z,99732.44
2022-08-16T19:07:20.862Z,99739.59
2022-08-16T19:09:48.945Z,99734.66
2022-08-16T19:12:16.896Z,99746.38
2022-08-16T19:15:07.146Z,99747.16
2022-08-16T19:17:36.901Z,99744.22
2022-08-16T19:20:10.490Z,99754.94
2022-08-16T19:23:02.145Z,99752.75
2022-08-16T19:25:48.484Z,99760.84
2022-08-16T19:28:46.671Z,99765.88
2022-08-16T19:31:10.706Z,99771.22
2022-08-16T19:33:40.527Z,99767.06
2022-08-16T19:36:32.084Z,99777.47
2022-08-16T19:39:05.394Z,99781.84
2022-08-16T19:41:36.208Z,99780.94
2022-08-16T19:44:05.508Z,99781.13
2022-08-16T19:46:33.677Z,99775.50
2022-08-16T19:49:03.474Z,99779.03
2022-08-16T19:51:31.645Z,99784.69
2022-08-16T19:53:59.775Z,99786.06
2022-08-16T19:56:27.685Z,99786.56
2022-08-16T20:01:45.216Z,99801.09
2022-08-16T20:04:14.864Z,99791.59
2022-08-16T20:06:43.264Z,99797.13
2022-08-16T20:09:14.933Z,99790.22
2022-08-16T20:11:43.865Z,99806.97
2022-08-16T20:14:24.633Z,99798.59
2022-08-16T20:16:55.515Z,99808.72
2022-08-16T20:19:25.132Z,99798.41
2022-08-16T20:21:53.120Z,99809.72
2022-08-16T20:24:36.794Z,99804.31
2022-08-16T20:27:07.676Z,99803.19
2022-08-16T20:29:36.487Z,99812.09
2022-08-16T20:32:05.724Z,99807.50
2022-08-16T20:34:35.734Z,99816.69
2022-08-16T20:37:05.019Z,99816.50
2022-08-16T20:39:33.464Z,99812.19
2022-08-16T20:42:01.341Z,99819.34
2022-08-16T20:44:29.236Z,99822.53
2022-08-16T20:46:57.035Z,99827.06
2022-08-16T20:49:24.937Z,99824.38
2022-08-16T20:51:59.149Z,99824.47
2022-08-16T20:54:28.367Z,99829.06
2022-08-16T20:56:56.465Z,99823.91
2022-08-16T20:59:24.322Z,99836.31
2022-08-16T21:01:52.210Z,99836.38
2022-08-16T21:04:20.317Z,99842.81
2022-08-16T21:06:53.815Z,99844.16
2022-08-16T21:09:24.741Z,99846.34
2022-08-16T21:11:54.380Z,99838.25
2022-08-16T21:14:22.253Z,99839.97
2022-08-16T21:16:50.163Z,99848.25
2022-08-16T21:19:18.074Z,99843.25
2022-08-16T21:21:45.972Z,99853.44
2022-08-16T21:24:14.355Z,99843.44
2022-08-16T21:26:53.046Z,99845.28
2022-08-16T21:29:40.033Z,99846.63
2022-08-16T21:32:14.149Z,99855.06
2022-08-16T21:34:42.935Z,99853.38
2022-08-16T21:37:11.077Z,99851.50
2022-08-16T21:39:39.087Z,99857.41
2022-08-16T21:42:10.655Z,99858.59
2022-08-16T21:44:39.210Z,99857.88
2022-08-16T21:47:08.252Z,99862.56
2022-08-16T21:49:37.633Z,99860.72
2022-08-16T21:52:06.808Z,99858.28
2022-08-16T21:54:35.366Z,99851.34
2022-08-16T21:57:05.562Z,99855.81
2022-08-16T21:59:37.943Z,99845.59
2022-08-16T22:02:06.433Z,99852.63
2022-08-16T22:04:36.921Z,99856.78
2022-08-16T22:07:06.332Z,99859.34
2022-08-16T22:09:34.163Z,99865.44
2022-08-16T22:12:01.981Z,99876.41
2022-08-16T22:14:29.933Z,99871.22
2022-08-16T22:16:59.149Z,99872.44
2022-08-16T22:19:26.962Z,99868.41
2022-08-16T22:21:55.581Z,99870.34
2022-08-16T22:24:23.474Z,99866.91
2022-08-16T22:26:51.260Z,99874.66
2022-08-16T22:29:19.201Z,99867.16
2022-08-16T22:31:47.058Z,99867.50
2022-08-16T22:34:16.522Z,99864.53
2022-08-16T22:36:44.639Z,99869.81
2022-08-16T22:39:14.720Z,99864.81
2022-08-16T22:41:45.418Z,99873.19
2022-08-16T22:44:13.759Z,99879.00
2022-08-16T22:46:41.577Z,99872.91
2022-08-16T22:49:10.582Z,99877.59
2022-08-16T22:51:40.266Z,99879.53
2022-08-16T22:54:47.387Z,99878.44
2022-08-16T22:56:57.698Z,99882.38
2022-08-16T22:59:25.983Z,99883.28
2022-08-16T23:01:54.520Z,99879.25
2022-08-16T23:04:22.444Z,99880.19
2022-08-16T23:06:52.195Z,99879.19
2022-08-16T23:09:19.966Z,99879.03
2022-08-16T23:11:48.033Z,99873.69
2022-08-16T23:14:16.519Z,99874.56
2022-08-16T23:16:47.212Z,99875.97
2022-08-16T23:19:17.364Z,99876.63
2022-08-16T23:21:48.903Z,99864.72
2022-08-16T23:24:19.262Z,99874.63
2022-08-16T23:26:49.063Z,99865.34
2022-08-16T23:29:24.451Z,99871.75
2022-08-16T23:31:56.697Z,99871.47
2022-08-16T23:34:25.339Z,99871.69
2022-08-16T23:36:53.204Z,99864.78
2022-08-16T23:39:22.385Z,99864.31
2022-08-16T23:41:50.269Z,99858.88
2022-08-16T23:44:57.719Z,99846.03
2022-08-16T23:47:06.903Z,99852.72
2022-08-16T23:49:57.793Z,99838.97
2022-08-16T23:52:40.506Z,99845.94
2022-08-16T23:55:12.140Z,99847.56
2022-08-16T23:57:39.973Z,99851.91
